Dillard, OR (97432)

9:17 PM PDT on March 25, 2017 (GMT -0700)
Dillard | | Change Station

Elev 449 ft 43.08 °N, 123.40 °W | Updated 11 seconds ago

Mostly Cloudy
Mostly Cloudy
45.3 °F
Feels Like 45 °F
N
0.0
Wind Variable Wind from South
Gusts 0.0 mph

Today
High -- | Low -- °F
--% Chance of Precip.
Yesterday
High -- | Low -- °F
Precip. -- in
Pressure 30.07 in
Visibility 10.0 miles
Clouds Scattered Clouds 12000 ft
Windchill 45 °F
Dew Point 40 °F
Humidity 82%
Rainfall 0.11 in
Snow Depth Not available.
7:07 AM 7:32 PM
Waning Crescent, 5% visible
METAR KRBG 260353Z AUTO 36004KT 10SM SCT120 10/06 A3007 RMK AO2 SLP183 T01000056
Pressure 30.07 in
Visibility 10.0 miles
Clouds Scattered Clouds 12000 ft
Windchill 45 °F
Dew Point 40 °F
Humidity 82%
Rainfall 0.11 in
Snow Depth Not available.
7:07 AM 7:32 PM
Waning Crescent, 5% visible
METAR KRBG 260353Z AUTO 36004KT 10SM SCT120 10/06 A3007 RMK AO2 SLP183 T01000056

Get Severe Weather Alerts

Thanks for signing up!

Be on the lookout for a verification email in your inbox.

You'll start receiving the daily forecast at 8 AM.

×

10-Day Weather Forecast

Almanac

Astronomy

Mar. 25, 2017 Rise Set
Actual Time
Civil Twilight
Nautical Twilight
Astronomical Twilight
Moon
Length of Visible Light
Length of Day
Tomorrow will be .
, % of the Moon is Illuminated

Today's Extremes

State Highs State Lows

Community

WunderPhotos

Upload Photos

1,962,540 photos uploaded!

WunderBlog® & News

Nearby

Air Quality

  Air Quality AQ Index Pollutant
Not available.

Snow Depth

Station Depth Elevation

Earthquake Activity

City Distance Mag. Time & Date
Minimum magnitude displayed is 2.5.

Earthquake Activity

City Distance Mag. Time & Date
Minimum magnitude displayed is 2.5.

Coastal Water Temperatures

Place Temperature

Stations

Nearby Weather Stations

Station Location Temp. Windchill Dew Point Humidity Wind Precip. Elev Updated Type
                   

Watches & Warnings

There are currently no watches in effect.